Time;durP1;ratioP1;P1;durP2;ratioP2;P2;SDS_P1;SDS_P2;PMS_P1;PMS_P2;Temp;Humidity;BMP_temperature;BMP_pressure;BME280_temperature;BME280_humidity;BME280_pressure;Samples;Min_cycle;Max_cycle;Signal;HPM_P1;HPM_P2
2022/11/01 00:00:48;;;;;;;11.43;4.95;;;16.10;78.20;;;;;;5027797;28;20112;-63
2022/11/01 00:03:13;;;;;;;10.55;4.88;;;16.10;78.20;;;;;;5016000;28;20161;-63
2022/11/01 00:05:39;;;;;;;12.23;5.13;;;16.10;78.20;;;;;;5017872;28;20113;-63
2022/11/01 00:08:05;;;;;;;12.98;4.80;;;16.10;78.20;;;;;;5023618;28;20033;-63
2022/11/01 00:10:30;;;;;;;9.57;5.28;;;16.10;78.20;;;;;;5028375;28;20292;-63
2022/11/01 00:12:56;;;;;;;10.75;5.00;;;16.10;78.10;;;;;;5018688;28;20029;-63
2022/11/01 00:15:22;;;;;;;11.63;5.38;;;16.20;78.10;;;;;;5035998;28;20029;-63
2022/11/01 00:17:47;;;;;;;10.15;5.80;;;16.20;78.00;;;;;;5023094;28;20032;-63
2022/11/01 00:20:13;;;;;;;9.45;5.30;;;16.20;77.90;;;;;;5030480;28;20048;-63
2022/11/01 00:22:39;;;;;;;12.32;6.18;;;16.20;77.80;;;;;;5014366;28;20021;-63
2022/11/01 00:25:05;;;;;;;14.60;5.13;;;16.30;77.70;;;;;;5042675;28;20048;-63
2022/11/01 00:27:30;;;;;;;12.80;5.53;;;16.30;77.70;;;;;;5024908;28;20041;-63
2022/11/01 00:29:56;;;;;;;9.05;4.72;;;16.30;77.60;;;;;;5030157;28;20030;-63
2022/11/01 00:32:22;;;;;;;9.38;5.40;;;16.30;77.60;;;;;;5032201;28;20343;-63
2022/11/01 00:34:47;;;;;;;10.10;4.85;;;16.40;77.60;;;;;;5031012;28;20025;-63
2022/11/01 00:37:13;;;;;;;12.30;5.10;;;16.30;77.70;;;;;;5026913;28;20057;-63
2022/11/01 00:39:39;;;;;;;11.07;5.35;;;16.30;77.80;;;;;;5017149;28;20060;-63
2022/11/01 00:42:06;;;;;;;12.30;5.70;;;16.30;77.80;;;;;;5030464;28;20076;-63
2022/11/01 00:44:31;;;;;;;12.98;5.40;;;16.30;77.90;;;;;;5020220;28;20026;-63
2022/11/01 00:46:57;;;;;;;10.48;5.47;;;16.30;77.90;;;;;;5030529;28;20192;-63
2022/11/01 00:49:23;;;;;;;13.57;5.60;;;16.30;78.00;;;;;;5028483;28;20061;-63
2022/11/01 00:51:48;;;;;;;10.05;5.25;;;16.30;77.90;;;;;;5017220;28;20037;-63
2022/11/01 00:54:14;;;;;;;10.73;5.15;;;16.30;78.00;;;;;;5015981;28;20029;-63
2022/11/01 00:56:40;;;;;;;11.40;5.00;;;16.30;78.00;;;;;;5014170;28;20029;-63
2022/11/01 00:59:05;;;;;;;11.50;5.10;;;16.40;78.10;;;;;;5025635;28;20029;-63
2022/11/01 01:01:31;;;;;;;8.73;4.97;;;16.40;78.10;;;;;;5025787;28;20112;-63
2022/11/01 01:03:57;;;;;;;14.27;5.03;;;16.40;78.10;;;;;;5012769;28;20426;-63
2022/11/01 01:06:22;;;;;;;11.55;5.30;;;16.40;78.10;;;;;;5014701;28;20033;-63
2022/11/01 01:08:48;;;;;;;12.07;5.05;;;16.40;78.10;;;;;;5014766;28;20127;-63
2022/11/01 01:11:13;;;;;;;11.57;4.95;;;16.50;78.20;;;;;;5012724;28;20053;-63
2022/11/01 01:13:39;;;;;;;13.25;4.88;;;16.40;78.20;;;;;;5014132;28;20028;-63
2022/11/01 01:16:11;;;;;;;9.20;5.03;;;16.40;78.10;;;;;;5015433;28;20022;-63
2022/11/01 01:18:37;;;;;;;9.20;4.80;;;16.50;78.20;;;;;;5014778;28;20217;-63
2022/11/01 01:21:04;;;;;;;10.02;5.15;;;16.50;78.10;;;;;;5014845;28;20041;-63
2022/11/01 01:23:30;;;;;;;11.02;4.97;;;16.50;78.10;;;;;;5014683;28;20029;-63
2022/11/01 01:25:55;;;;;;;11.63;4.90;;;16.50;78.10;;;;;;5014690;28;20049;-63
2022/11/01 01:28:21;;;;;;;10.70;5.60;;;16.60;78.00;;;;;;5014446;28;20018;-63
2022/11/01 01:30:47;;;;;;;11.15;5.25;;;16.60;78.10;;;;;;5015564;28;20036;-63
2022/11/01 01:33:13;;;;;;;8.52;4.25;;;16.60;78.10;;;;;;5012217;28;20409;-63
2022/11/01 01:35:38;;;;;;;11.57;5.50;;;16.60;78.10;;;;;;5015223;28;20116;-63
2022/11/01 01:38:05;;;;;;;8.55;4.53;;;16.60;78.10;;;;;;5015105;28;20029;-62
2022/11/01 01:40:32;;;;;;;10.48;5.20;;;16.60;78.10;;;;;;5015142;28;20021;-63
2022/11/01 01:42:58;;;;;;;10.45;5.18;;;16.60;78.20;;;;;;5014334;28;20037;-63
2022/11/01 01:45:35;;;;;;;10.73;5.05;;;16.70;78.20;;;;;;5014661;28;20107;-63
2022/11/01 01:48:23;;;;;;;9.63;5.00;;;16.70;78.20;;;;;;5006632;28;20041;-63
2022/11/01 01:50:58;;;;;;;11.13;5.57;;;16.70;78.20;;;;;;5014675;28;20041;-63
2022/11/01 01:53:26;;;;;;;9.95;4.75;;;16.60;78.20;;;;;;5020655;28;20025;-63
2022/11/01 01:55:59;;;;;;;12.30;4.40;;;16.60;78.20;;;;;;5031499;28;20021;-63
2022/11/01 01:58:30;;;;;;;12.60;5.47;;;16.70;78.30;;;;;;5014788;28;20447;-63
2022/11/01 02:00:56;;;;;;;11.18;4.65;;;16.60;78.30;;;;;;5026556;28;20033;-63
2022/11/01 02:03:26;;;;;;;9.27;4.72;;;16.60;78.40;;;;;;5021843;28;20458;-63
2022/11/01 02:05:54;;;;;;;10.25;4.97;;;16.60;78.40;;;;;;5029649;28;20106;-63
2022/11/01 02:08:26;;;;;;;10.65;4.97;;;16.60;78.40;;;;;;5033113;28;20025;-63
2022/11/01 02:11:06;;;;;;;9.32;4.65;;;16.60;78.50;;;;;;5022228;28;20026;-63
2022/11/01 02:13:32;;;;;;;11.20;4.70;;;16.60;78.50;;;;;;5013273;28;20514;-63
2022/11/01 02:16:30;;;;;;;8.30;4.53;;;16.60;78.60;;;;;;5014238;28;20064;-63
2022/11/01 02:19:13;;;;;;;8.45;4.20;;;16.70;78.70;;;;;;5013465;28;20105;-63
2022/11/01 02:22:02;;;;;;;13.27;4.57;;;16.60;78.70;;;;;;5013973;28;20040;-63
2022/11/01 02:24:43;;;;;;;8.43;4.72;;;16.60;78.90;;;;;;5012804;28;20038;-63
2022/11/01 02:27:13;;;;;;;12.27;5.00;;;16.60;78.90;;;;;;5013247;28;20463;-63
2022/11/01 02:29:53;;;;;;;8.18;4.53;;;16.60;79.00;;;;;;5013658;28;20371;-63
2022/11/01 02:32:27;;;;;;;10.23;5.00;;;16.60;79.00;;;;;;5013629;28;20361;-63
2022/11/01 02:35:21;;;;;;;9.02;4.28;;;16.60;79.10;;;;;;5011974;28;20032;-63
2022/11/01 02:38:07;;;;;;;9.05;4.50;;;16.60;79.20;;;;;;5018062;28;20466;-63
2022/11/01 02:40:50;;;;;;;9.65;4.50;;;16.60;79.20;;;;;;5019969;28;20099;-63
2022/11/01 02:43:21;;;;;;;11.35;4.35;;;16.60;79.30;;;;;;5020058;28;20033;-62
2022/11/01 02:45:50;;;;;;;8.88;3.72;;;16.70;79.50;;;;;;5019282;28;20040;-63
2022/11/01 02:48:21;;;;;;;11.68;5.25;;;16.60;79.40;;;;;;5019845;28;20129;-62
2022/11/01 02:50:55;;;;;;;10.38;4.43;;;16.70;79.60;;;;;;5019292;28;20048;-63
2022/11/01 02:53:21;;;;;;;11.65;4.95;;;16.70;79.60;;;;;;5022985;28;20030;-63
2022/11/01 02:55:46;;;;;;;7.85;3.88;;;16.70;79.60;;;;;;5019418;28;20017;-62
2022/11/01 02:58:23;;;;;;;9.73;5.03;;;16.70;79.70;;;;;;5020661;28;20430;-62
2022/11/01 03:00:49;;;;;;;8.10;4.20;;;16.70;79.80;;;;;;5019426;28;20037;-62
2022/11/01 03:03:33;;;;;;;9.98;4.65;;;16.80;79.90;;;;;;5018655;28;20040;-62
2022/11/01 03:06:03;;;;;;;11.40;4.40;;;16.80;80.00;;;;;;5019968;28;20038;-63
2022/11/01 03:08:34;;;;;;;10.68;4.50;;;16.80;80.10;;;;;;5019776;28;20030;-63
2022/11/01 03:11:08;;;;;;;10.45;4.35;;;16.80;80.20;;;;;;5014960;28;20034;-63
2022/11/01 03:13:59;;;;;;;8.50;3.95;;;16.80;80.30;;;;;;5015415;28;20026;-62
2022/11/01 03:16:52;;;;;;;12.20;4.55;;;16.90;80.30;;;;;;5009715;28;20136;-63
2022/11/01 03:19:33;;;;;;;7.53;3.72;;;16.90;80.30;;;;;;5020204;28;20511;-62
2022/11/01 03:22:09;;;;;;;7.57;3.58;;;16.90;80.40;;;;;;5021713;28;20026;-63
2022/11/01 03:24:53;;;;;;;9.23;4.15;;;16.90;80.40;;;;;;5019038;28;20038;-63
2022/11/01 03:27:19;;;;;;;8.38;3.90;;;17.00;80.40;;;;;;5013062;28;20052;-63
2022/11/01 03:29:55;;;;;;;8.30;4.07;;;17.00;80.40;;;;;;5019864;28;20041;-63
2022/11/01 03:32:29;;;;;;;10.52;3.92;;;17.00;80.40;;;;;;5019107;28;20041;-63
2022/11/01 03:34:58;;;;;;;9.23;4.15;;;17.10;80.50;;;;;;5018265;28;20417;-63
2022/11/01 03:37:24;;;;;;;7.72;4.10;;;17.10;80.50;;;;;;5020333;28;20092;-63
2022/11/01 03:39:53;;;;;;;9.15;4.70;;;17.10;80.50;;;;;;5019466;28;20065;-63
2022/11/01 03:42:21;;;;;;;8.90;3.97;;;17.10;80.50;;;;;;5020014;28;20133;-63
2022/11/01 03:44:51;;;;;;;9.27;3.80;;;17.10;80.50;;;;;;5018608;28;20093;-63
2022/11/01 03:47:17;;;;;;;10.40;3.70;;;17.10;80.50;;;;;;5016624;28;20089;-63
2022/11/01 03:49:43;;;;;;;7.90;4.05;;;17.10;80.50;;;;;;5016282;28;20034;-63
2022/11/01 03:52:09;;;;;;;10.05;4.40;;;17.10;80.40;;;;;;5016197;28;20434;-63
2022/11/01 03:54:34;;;;;;;9.35;3.63;;;17.20;80.50;;;;;;5015633;28;20029;-63
2022/11/01 03:57:00;;;;;;;8.65;3.80;;;17.20;80.60;;;;;;5014589;28;20457;-63
2022/11/01 03:59:25;;;;;;;8.73;4.28;;;17.20;80.50;;;;;;5017428;28;20076;-63
2022/11/01 04:01:51;;;;;;;9.45;3.78;;;17.20;80.50;;;;;;5014296;28;20037;-63
2022/11/01 04:04:17;;;;;;;9.07;4.20;;;17.10;80.50;;;;;;5015367;28;20036;-63
2022/11/01 04:06:43;;;;;;;10.48;4.30;;;17.20;80.60;;;;;;5015026;28;20030;-63
2022/11/01 04:09:09;;;;;;;10.38;4.15;;;17.20;80.50;;;;;;5012333;28;20125;-63
2022/11/01 04:11:34;;;;;;;9.25;3.90;;;17.20;80.40;;;;;;5007217;28;20076;-63
2022/11/01 04:22:13;;;;;;;8.65;3.60;;;17.20;80.00;;;;;;5014828;28;20036;-63
2022/11/01 04:24:39;;;;;;;8.52;3.28;;;17.20;79.90;;;;;;5015674;28;20386;-63
2022/11/01 04:27:04;;;;;;;11.05;3.58;;;17.20;79.90;;;;;;5014106;28;20358;-63
2022/11/01 04:29:30;;;;;;;6.63;3.20;;;17.20;79.70;;;;;;5016121;28;20054;-63
2022/11/01 04:31:56;;;;;;;7.32;3.30;;;17.20;79.50;;;;;;5019573;28;20038;-63
2022/11/01 04:34:40;;;;;;;7.70;2.83;;;17.20;79.40;;;;;;5019892;28;20030;-63
2022/11/01 04:37:06;;;;;;;7.22;2.78;;;17.20;79.20;;;;;;5022361;28;20155;-63
2022/11/01 04:39:32;;;;;;;6.10;2.75;;;17.10;78.90;;;;;;5026529;28;20447;-63
2022/11/01 04:41:57;;;;;;;7.43;2.70;;;17.10;78.70;;;;;;5018329;28;20037;-63
2022/11/01 04:44:23;;;;;;;5.35;2.35;;;17.10;78.50;;;;;;5023613;28;20030;-63
2022/11/01 04:46:49;;;;;;;6.88;2.58;;;17.10;78.30;;;;;;5036246;28;20025;-63
2022/11/01 04:49:14;;;;;;;4.80;2.13;;;17.00;77.70;;;;;;5028624;28;20072;-63
2022/11/01 04:51:41;;;;;;;4.15;1.70;;;17.00;77.00;;;;;;5019283;28;20124;-63
2022/11/01 04:54:06;;;;;;;4.32;1.42;;;17.00;76.30;;;;;;5036034;28;20063;-63
2022/11/01 04:56:33;;;;;;;3.85;1.48;;;17.00;75.80;;;;;;5026740;28;20063;-63
2022/11/01 04:58:58;;;;;;;3.22;1.20;;;16.90;75.30;;;;;;5015672;28;20076;-63
2022/11/01 05:01:24;;;;;;;4.60;1.40;;;16.90;74.80;;;;;;5027507;28;20443;-63
2022/11/01 05:03:50;;;;;;;4.15;1.15;;;16.90;74.30;;;;;;5007192;28;20042;-63
2022/11/01 05:06:15;;;;;;;5.28;1.27;;;16.90;73.90;;;;;;5006990;28;20026;-63
2022/11/01 05:08:41;;;;;;;6.03;1.30;;;16.80;73.50;;;;;;5000391;28;20404;-63
2022/11/01 05:11:07;;;;;;;4.20;1.20;;;16.80;73.20;;;;;;4996351;28;20031;-63
2022/11/01 05:13:33;;;;;;;2.92;1.10;;;16.80;73.00;;;;;;4999989;28;20065;-63
2022/11/01 05:16:01;;;;;;;5.22;1.25;;;16.70;72.80;;;;;;5001899;28;20109;-63
2022/11/01 05:18:28;;;;;;;3.25;0.90;;;16.70;72.50;;;;;;4999619;28;20509;-63
2022/11/01 05:20:55;;;;;;;2.05;1.00;;;16.70;72.50;;;;;;5005372;28;20061;-63
2022/11/01 05:23:21;;;;;;;4.07;1.02;;;16.70;72.40;;;;;;5001739;28;20438;-63
2022/11/01 05:25:47;;;;;;;2.08;0.95;;;16.60;72.40;;;;;;4995749;28;20042;-63
2022/11/01 05:28:13;;;;;;;3.65;1.20;;;16.60;72.30;;;;;;5002794;28;20025;-63
2022/11/01 05:30:40;;;;;;;4.40;1.00;;;16.60;72.30;;;;;;5002937;28;20060;-63
2022/11/01 05:33:06;;;;;;;2.95;0.93;;;16.50;72.20;;;;;;5006945;28;20100;-63
2022/11/01 05:35:34;;;;;;;2.53;0.93;;;16.50;72.10;;;;;;5005033;28;20046;-63
2022/11/01 05:38:01;;;;;;;4.82;0.93;;;16.50;72.00;;;;;;4997963;28;20374;-63
2022/11/01 05:40:27;;;;;;;1.40;0.70;;;16.40;71.80;;;;;;4998485;28;20019;-63
2022/11/01 05:42:53;;;;;;;4.95;1.15;;;16.40;71.80;;;;;;4998148;28;20034;-63
2022/11/01 05:45:18;;;;;;;3.10;0.90;;;16.40;71.70;;;;;;5009486;28;20014;-63
2022/11/01 05:47:44;;;;;;;2.53;0.73;;;16.40;71.60;;;;;;5008127;28;20442;-63
2022/11/01 05:50:11;;;;;;;2.13;0.93;;;16.30;71.50;;;;;;5014691;28;20022;-63
2022/11/01 05:52:37;;;;;;;4.00;1.00;;;16.30;71.30;;;;;;5007857;28;20034;-63
2022/11/01 05:55:04;;;;;;;4.18;1.00;;;16.30;71.30;;;;;;5020292;28;20108;-63
2022/11/01 05:57:30;;;;;;;3.42;1.02;;;16.30;71.30;;;;;;5026618;28;20083;-63
2022/11/01 05:59:55;;;;;;;4.63;1.27;;;16.30;71.20;;;;;;5023665;28;20022;-63
2022/11/01 06:02:21;;;;;;;4.15;1.05;;;16.20;71.00;;;;;;5013873;28;20497;-63
2022/11/01 06:04:47;;;;;;;2.38;1.08;;;16.20;70.90;;;;;;5014888;28;20485;-63
2022/11/01 06:07:12;;;;;;;4.72;1.20;;;16.20;70.80;;;;;;5026357;28;20034;-63
2022/11/01 06:09:38;;;;;;;2.55;0.73;;;16.20;70.70;;;;;;5023426;28;20092;-63
2022/11/01 06:12:04;;;;;;;3.25;1.10;;;16.20;70.60;;;;;;5012907;28;20115;-63
2022/11/01 06:14:30;;;;;;;2.20;0.70;;;16.20;70.50;;;;;;5014227;28;20117;-63
2022/11/01 06:16:55;;;;;;;2.95;1.13;;;16.10;70.40;;;;;;5011626;28;20014;-63
2022/11/01 06:19:21;;;;;;;1.55;0.70;;;16.10;70.20;;;;;;5030592;28;20041;-62
2022/11/01 06:21:46;;;;;;;3.80;1.00;;;16.10;70.00;;;;;;5017582;28;20033;-62
2022/11/01 06:24:12;;;;;;;3.13;1.13;;;16.10;69.80;;;;;;5014417;28;20033;-63
2022/11/01 06:26:38;;;;;;;4.63;1.00;;;16.10;69.50;;;;;;5007609;28;20466;-63
2022/11/01 06:29:04;;;;;;;4.55;1.10;;;16.10;69.30;;;;;;5015695;28;20340;-63
2022/11/01 06:31:30;;;;;;;1.73;0.85;;;16.00;69.00;;;;;;5012561;28;20049;-63
2022/11/01 06:33:55;;;;;;;2.40;1.00;;;16.00;68.80;;;;;;5013888;28;20026;-62
2022/11/01 06:36:22;;;;;;;3.25;1.02;;;16.00;68.80;;;;;;5014292;28;20040;-62
2022/11/01 06:38:48;;;;;;;4.78;1.10;;;16.00;68.60;;;;;;5017921;28;20026;-63
2022/11/01 06:41:14;;;;;;;6.15;1.27;;;16.00;68.40;;;;;;5013237;28;20382;-63
2022/11/01 06:43:40;;;;;;;4.88;1.20;;;16.00;68.30;;;;;;5014590;28;20034;-63
2022/11/01 06:46:05;;;;;;;3.65;1.08;;;16.00;68.20;;;;;;5013013;28;20088;-63
2022/11/01 06:48:31;;;;;;;3.85;1.08;;;16.00;68.10;;;;;;5016875;28;20418;-63
2022/11/01 06:50:56;;;;;;;4.93;1.15;;;15.90;67.90;;;;;;5011898;28;20038;-63
2022/11/01 06:53:23;;;;;;;5.30;1.45;;;15.90;67.80;;;;;;5010926;28;20024;-63
2022/11/01 06:55:49;;;;;;;5.22;1.05;;;15.90;68.30;;;;;;5017576;28;20032;-63
2022/11/01 06:58:14;;;;;;;5.97;1.10;;;15.90;68.70;;;;;;5016862;28;20026;-63
2022/11/01 07:00:40;;;;;;;3.13;1.10;;;15.80;68.60;;;;;;5013894;28;20109;-63
2022/11/01 07:03:10;;;;;;;3.35;1.23;;;15.80;68.60;;;;;;5011985;28;20052;-63
2022/11/01 07:05:36;;;;;;;5.32;1.45;;;15.80;68.40;;;;;;5014225;28;20365;-63
2022/11/01 07:08:03;;;;;;;3.05;1.00;;;15.80;68.20;;;;;;5013559;28;20034;-62
2022/11/01 07:10:29;;;;;;;8.88;1.48;;;15.80;68.00;;;;;;5013464;28;20033;-63
2022/11/01 07:13:03;;;;;;;6.32;1.42;;;15.80;68.00;;;;;;5015597;28;20300;-63
2022/11/01 07:15:29;;;;;;;4.43;1.20;;;15.80;67.70;;;;;;5016857;28;20033;-63
2022/11/01 07:17:56;;;;;;;8.98;1.65;;;15.80;67.50;;;;;;5011763;28;20434;-63
2022/11/01 07:20:23;;;;;;;4.80;1.35;;;15.80;67.30;;;;;;5010213;28;20050;-64
2022/11/01 07:22:57;;;;;;;6.28;1.50;;;15.80;67.30;;;;;;5011272;28;20374;-66
2022/11/01 07:25:23;;;;;;;4.85;1.23;;;15.90;66.90;;;;;;5014381;28;20041;-63
2022/11/01 07:27:48;;;;;;;3.72;1.23;;;15.90;66.80;;;;;;5014817;28;20029;-63
2022/11/01 07:30:14;;;;;;;7.47;1.67;;;15.90;66.70;;;;;;5016920;28;20096;-63
2022/11/01 07:32:39;;;;;;;8.30;1.67;;;15.90;66.60;;;;;;5016255;28;20030;-63
2022/11/01 07:35:05;;;;;;;6.05;1.30;;;16.00;66.50;;;;;;5018197;28;20033;-63
2022/11/01 07:37:31;;;;;;;9.93;2.00;;;16.00;66.30;;;;;;5016590;28;20084;-63
2022/11/01 07:39:57;;;;;;;3.22;1.10;;;16.00;66.20;;;;;;5015088;28;20018;-63
2022/11/01 07:42:22;;;;;;;6.55;1.40;;;16.00;66.20;;;;;;5005674;28;20501;-63
2022/11/01 07:44:48;;;;;;;6.75;1.60;;;16.00;66.10;;;;;;5015756;28;20465;-64
2022/11/01 07:47:14;;;;;;;6.45;1.40;;;16.00;66.10;;;;;;5014298;28;20057;-63
2022/11/01 07:49:39;;;;;;;8.73;1.50;;;16.00;66.10;;;;;;5014132;28;20108;-63
2022/11/01 07:52:05;;;;;;;5.45;1.38;;;16.00;66.10;;;;;;5017142;28;20121;-63
2022/11/01 07:54:30;;;;;;;4.10;1.17;;;16.00;66.00;;;;;;5017388;28;20565;-63
2022/11/01 07:56:56;;;;;;;3.65;1.20;;;16.10;66.00;;;;;;5018808;28;20033;-63
2022/11/01 07:59:21;;;;;;;6.57;1.58;;;16.10;65.90;;;;;;5017217;28;20028;-65
2022/11/01 08:01:47;;;;;;;9.52;1.45;;;16.10;65.90;;;;;;5016136;28;20490;-64
2022/11/01 08:04:13;;;;;;;6.47;1.40;;;16.10;65.90;;;;;;5010638;28;20081;-64
2022/11/01 08:06:38;;;;;;;6.80;1.35;;;16.10;65.90;;;;;;5014109;28;20037;-64
2022/11/01 08:09:04;;;;;;;9.00;1.80;;;16.10;65.90;;;;;;5014868;28;20025;-65
2022/11/01 08:11:30;;;;;;;6.68;1.45;;;16.10;65.70;;;;;;5016241;28;20022;-62
2022/11/01 08:13:55;;;;;;;8.25;1.42;;;16.10;65.70;;;;;;5018964;28;20095;-62
2022/11/01 08:16:21;;;;;;;7.43;1.58;;;16.20;65.70;;;;;;5022449;28;20030;-62
2022/11/01 08:18:47;;;;;;;5.38;1.63;;;16.20;65.60;;;;;;5020167;28;20048;-63
2022/11/01 08:21:17;;;;;;;7.30;1.73;;;16.20;65.40;;;;;;5015507;28;20041;-62
2022/11/01 08:23:44;;;;;;;6.93;1.60;;;16.20;65.30;;;;;;5013520;28;20040;-62
2022/11/01 08:26:10;;;;;;;5.45;1.55;;;16.20;65.30;;;;;;5035131;28;20367;-63
2022/11/01 08:28:36;;;;;;;5.18;1.38;;;16.30;65.40;;;;;;5025806;28;20117;-63
2022/11/01 08:31:06;;;;;;;8.88;2.13;;;16.30;65.30;;;;;;5033577;28;20112;-65
2022/11/01 08:33:31;;;;;;;9.38;2.00;;;16.30;65.10;;;;;;5017753;28;20022;-62
2022/11/01 08:35:57;;;;;;;5.50;1.40;;;16.30;65.20;;;;;;5018016;28;20026;-62
2022/11/01 08:38:22;;;;;;;8.75;1.30;;;16.30;65.10;;;;;;5014430;28;20030;-62
2022/11/01 08:40:48;;;;;;;10.82;1.73;;;16.40;65.20;;;;;;5023339;28;20026;-63
2022/11/01 08:43:14;;;;;;;7.78;1.70;;;16.40;65.00;;;;;;5025181;28;20363;-63
2022/11/01 08:45:40;;;;;;;6.40;1.77;;;16.40;64.90;;;;;;5028184;28;20040;-63
2022/11/01 08:48:05;;;;;;;9.07;1.63;;;16.50;64.80;;;;;;5015846;28;20034;-62
2022/11/01 08:50:33;;;;;;;7.97;1.85;;;16.50;64.60;;;;;;5030765;28;20037;-63
2022/11/01 08:53:03;;;;;;;6.35;1.75;;;16.60;64.40;;;;;;5015233;28;20445;-62
2022/11/01 08:55:29;;;;;;;7.90;1.83;;;16.60;64.10;;;;;;5031197;28;20021;-63
2022/11/01 08:57:57;;;;;;;9.93;1.67;;;16.70;64.10;;;;;;5022280;28;20825;-63
2022/11/01 09:00:25;;;;;;;7.22;1.63;;;16.70;63.80;;;;;;5029843;28;20445;-62
2022/11/01 09:02:51;;;;;;;12.68;2.55;;;16.80;63.80;;;;;;5027014;28;20033;-63
2022/11/01 09:05:17;;;;;;;8.70;1.50;;;16.80;63.70;;;;;;5027781;28;20037;-63
2022/11/01 09:07:42;;;;;;;7.07;1.83;;;16.90;63.70;;;;;;5025223;28;20363;-63
2022/11/01 09:10:09;;;;;;;7.32;1.83;;;16.90;63.50;;;;;;5041084;28;20037;-64
2022/11/01 09:12:35;;;;;;;9.23;1.77;;;17.00;63.40;;;;;;5023692;28;20038;-64
2022/11/01 09:15:02;;;;;;;9.10;1.83;;;17.00;63.10;;;;;;5021499;28;20018;-63
2022/11/01 09:17:28;;;;;;;10.23;2.25;;;17.00;63.00;;;;;;5028866;28;20383;-63
2022/11/01 09:19:54;;;;;;;8.50;1.90;;;17.10;62.80;;;;;;5024973;28;20065;-63
2022/11/01 09:22:19;;;;;;;9.95;2.50;;;17.10;62.70;;;;;;5019464;28;20052;-63
2022/11/01 09:24:45;;;;;;;5.88;1.50;;;17.20;62.60;;;;;;5018556;28;20036;-62
2022/11/01 09:27:11;;;;;;;10.90;1.90;;;17.20;62.40;;;;;;5035573;28;20049;-63
2022/11/01 09:29:36;;;;;;;7.15;1.90;;;17.30;62.30;;;;;;5021297;28;20075;-63
2022/11/01 09:32:02;;;;;;;10.45;2.28;;;17.40;62.20;;;;;;5035338;28;20061;-64
2022/11/01 09:34:28;;;;;;;8.90;1.60;;;17.50;61.80;;;;;;5034906;28;20117;-63
2022/11/01 09:36:54;;;;;;;6.65;1.65;;;17.50;61.70;;;;;;5035017;28;20426;-64
2022/11/01 09:39:20;;;;;;;9.00;1.85;;;17.70;61.60;;;;;;5034910;28;20029;-63
2022/11/01 09:42:03;;;;;;;9.20;2.28;;;17.80;61.50;;;;;;5035076;28;20044;-64
2022/11/01 09:44:38;;;;;;;9.23;1.90;;;17.80;60.90;;;;;;5035004;28;20125;-64
2022/11/01 09:47:25;;;;;;;9.13;1.70;;;18.00;60.60;;;;;;5017312;28;20079;-63
2022/11/01 09:50:15;;;;;;;10.88;1.85;;;18.10;60.40;;;;;;5030404;28;20346;-64
2022/11/01 09:52:40;;;;;;;7.63;2.00;;;18.30;60.00;;;;;;5033208;28;20103;-64
2022/11/01 09:55:14;;;;;;;7.15;1.50;;;18.40;59.90;;;;;;5034655;28;20109;-64
2022/11/01 09:57:52;;;;;;;9.93;2.25;;;18.60;59.50;;;;;;5034785;28;20079;-64
2022/11/01 10:00:20;;;;;;;6.90;1.52;;;18.70;59.30;;;;;;5029348;28;20034;-64
2022/11/01 10:02:57;;;;;;;8.57;2.10;;;18.80;59.10;;;;;;5014645;28;20037;-64
2022/11/01 10:05:47;;;;;;;8.95;2.00;;;18.90;58.70;;;;;;5019928;28;20025;-64
2022/11/01 10:08:18;;;;;;;9.15;2.33;;;19.00;58.50;;;;;;5019243;28;20029;-64
2022/11/01 10:10:55;;;;;;;10.50;2.08;;;19.10;58.40;;;;;;5017255;28;20018;-64
2022/11/01 10:13:46;;;;;;;8.25;1.77;;;19.10;58.30;;;;;;5007028;28;20018;-64
2022/11/01 10:16:36;;;;;;;11.90;1.50;;;19.10;57.90;;;;;;5014039;28;20037;-63
2022/11/01 10:19:03;;;;;;;6.40;1.58;;;19.20;58.10;;;;;;5014727;28;20365;-64
2022/11/01 10:21:41;;;;;;;10.07;2.28;;;19.30;57.90;;;;;;5014391;28;20069;-64
2022/11/01 10:24:16;;;;;;;8.85;2.38;;;19.20;57.60;;;;;;5014452;28;20359;-63
2022/11/01 10:26:44;;;;;;;9.48;1.92;;;19.30;57.30;;;;;;5013009;28;20030;-63
2022/11/01 10:29:50;;;;;;;7.78;1.55;;;19.20;57.20;;;;;;5014157;28;20046;-63
2022/11/01 10:32:39;;;;;;;9.05;1.75;;;19.20;57.20;;;;;;5016966;28;20042;-63
2022/11/01 10:35:37;;;;;;;6.85;1.73;;;19.20;57.30;;;;;;5012792;28;20042;-63
2022/11/01 10:38:38;;;;;;;9.93;1.90;;;19.20;57.20;;;;;;5010528;28;20048;-63
2022/11/01 10:41:28;;;;;;;9.45;2.00;;;19.30;57.10;;;;;;5014037;28;20466;-63
2022/11/01 10:43:59;;;;;;;11.13;2.15;;;19.30;57.00;;;;;;5014443;28;20522;-63
2022/11/01 10:46:32;;;;;;;8.27;1.75;;;19.30;57.30;;;;;;5014060;28;20053;-63
2022/11/01 10:49:05;;;;;;;9.32;1.88;;;19.30;57.20;;;;;;5013749;28;20040;-63
2022/11/01 10:51:33;;;;;;;6.20;1.50;;;19.30;57.10;;;;;;5014088;28;20048;-64
2022/11/01 10:54:04;;;;;;;8.70;1.55;;;19.30;57.10;;;;;;5014160;28;20453;-64
2022/11/01 10:56:43;;;;;;;6.35;1.80;;;19.40;57.00;;;;;;5012898;28;20431;-64
2022/11/01 10:59:14;;;;;;;11.23;2.10;;;19.40;56.90;;;;;;5005703;28;20112;-64
2022/11/01 11:01:43;;;;;;;7.43;1.73;;;19.50;56.90;;;;;;5023617;28;20048;-64
2022/11/01 11:04:18;;;;;;;11.23;2.35;;;19.50;56.90;;;;;;5023141;28;20037;-63
2022/11/01 11:06:44;;;;;;;7.25;1.70;;;19.50;56.80;;;;;;5033697;28;20071;-64
2022/11/01 11:09:25;;;;;;;9.50;2.30;;;19.50;57.00;;;;;;5035940;28;20490;-64
2022/11/01 11:11:55;;;;;;;7.97;2.25;;;19.50;56.90;;;;;;5016687;28;20030;-63
2022/11/01 11:14:21;;;;;;;10.32;2.58;;;19.50;56.90;;;;;;5018306;28;20026;-63
2022/11/01 11:16:51;;;;;;;8.10;1.80;;;19.50;56.90;;;;;;5017176;28;20056;-63
2022/11/01 11:19:44;;;;;;;7.95;1.77;;;19.50;56.70;;;;;;5015358;28;20046;-63
2022/11/01 11:22:11;;;;;;;10.68;1.83;;;19.40;56.70;;;;;;5017185;28;20478;-63
2022/11/01 11:24:42;;;;;;;9.65;1.77;;;19.40;57.00;;;;;;5013499;28;20367;-64
2022/11/01 11:27:22;;;;;;;6.72;1.60;;;19.30;56.80;;;;;;5017194;28;20100;-63
2022/11/01 11:29:47;;;;;;;9.80;1.83;;;19.30;56.90;;;;;;5017637;28;20034;-63
2022/11/01 11:32:34;;;;;;;7.53;1.60;;;19.30;57.00;;;;;;5017109;28;20087;-63
2022/11/01 11:35:05;;;;;;;9.70;2.03;;;19.30;57.00;;;;;;5018088;28;20022;-64
2022/11/01 11:37:33;;;;;;;5.68;1.35;;;19.30;57.10;;;;;;5017800;28;20030;-63
2022/11/01 11:40:05;;;;;;;6.05;1.63;;;19.30;57.10;;;;;;5017404;28;20049;-64
2022/11/01 11:42:32;;;;;;;7.40;1.38;;;19.20;57.10;;;;;;5021285;28;20048;-63
2022/11/01 11:45:19;;;;;;;9.05;1.77;;;19.20;57.10;;;;;;5036086;28;20383;-63
2022/11/01 11:47:47;;;;;;;7.65;2.25;;;19.10;56.80;;;;;;5012696;28;20465;-63
2022/11/01 11:50:19;;;;;;;5.82;1.73;;;19.10;57.00;;;;;;5029387;28;20037;-63
2022/11/01 11:53:07;;;;;;;9.55;1.85;;;19.00;56.90;;;;;;5036763;28;20043;-63
2022/11/01 11:55:45;;;;;;;9.35;2.05;;;18.90;57.00;;;;;;5036945;28;20393;-63
2022/11/01 11:58:47;;;;;;;7.55;1.60;;;19.00;57.20;;;;;;5036656;28;20026;-63
2022/11/01 12:01:23;;;;;;;8.02;1.98;;;18.90;57.80;;;;;;5027021;28;20044;-63
2022/11/01 12:03:54;;;;;;;10.68;1.98;;;18.80;57.30;;;;;;5029406;28;20342;-63
2022/11/01 12:06:22;;;;;;;7.22;1.75;;;18.70;57.40;;;;;;5037238;28;20053;-63
2022/11/01 12:08:51;;;;;;;9.75;2.10;;;18.60;57.40;;;;;;5035235;28;20033;-63
2022/11/01 12:11:17;;;;;;;10.57;2.00;;;18.60;57.60;;;;;;5029557;28;20299;-63
2022/11/01 12:14:22;;;;;;;7.95;1.63;;;18.50;57.70;;;;;;5022653;28;20438;-63
2022/11/01 12:16:49;;;;;;;7.88;1.85;;;18.50;57.70;;;;;;5023643;28;20086;-63
2022/11/01 12:19:29;;;;;;;7.32;1.65;;;18.40;58.00;;;;;;5036872;28;20042;-63
2022/11/01 12:21:59;;;;;;;5.63;1.70;;;18.30;57.90;;;;;;5036723;28;20041;-63
2022/11/01 12:24:51;;;;;;;8.50;1.60;;;18.30;58.20;;;;;;5036476;28;20040;-63
2022/11/01 12:27:23;;;;;;;6.32;1.67;;;18.20;58.20;;;;;;5036326;28;20045;-63
2022/11/01 12:29:56;;;;;;;6.18;1.67;;;18.20;58.30;;;;;;5036576;28;20029;-63
2022/11/01 12:32:43;;;;;;;6.70;2.03;;;18.20;58.50;;;;;;5030928;28;20034;-63
2022/11/01 12:35:19;;;;;;;10.35;2.20;;;18.20;58.50;;;;;;5023012;28;20462;-63
2022/11/01 12:38:00;;;;;;;8.10;1.77;;;18.10;58.50;;;;;;5022785;28;20489;-64
2022/11/01 12:40:34;;;;;;;6.18;1.10;;;18.10;58.60;;;;;;5017548;28;20049;-63
2022/11/01 12:43:12;;;;;;;6.45;1.58;;;18.10;58.70;;;;;;5020726;28;20062;-63
2022/11/01 12:45:46;;;;;;;6.15;2.15;;;18.00;58.80;;;;;;5019427;28;20124;-63
2022/11/01 12:48:41;;;;;;;8.68;1.80;;;18.00;58.90;;;;;;5019945;28;20029;-63
2022/11/01 12:51:11;;;;;;;7.18;1.50;;;18.10;59.00;;;;;;5004476;28;20046;-63
2022/11/01 12:53:53;;;;;;;7.45;1.70;;;18.00;59.10;;;;;;5013206;28;20049;-63
2022/11/01 12:56:19;;;;;;;6.65;1.35;;;18.00;59.10;;;;;;5007315;28;20029;-63
2022/11/01 12:58:44;;;;;;;8.43;1.90;;;18.00;59.10;;;;;;5015132;28;20040;-63
2022/11/01 13:01:22;;;;;;;5.63;1.60;;;18.00;59.60;;;;;;5014924;28;20058;-63
2022/11/01 13:03:50;;;;;;;7.47;1.77;;;18.00;59.00;;;;;;5015534;28;20041;-63
2022/11/01 13:06:31;;;;;;;7.75;1.50;;;18.00;59.10;;;;;;5015756;28;20040;-63
2022/11/01 13:09:16;;;;;;;6.57;1.35;;;18.00;59.00;;;;;;5016457;28;20300;-63